sensor_id;sensor_type;location;lat;lon;timestamp;pressure;altitude;pressure_sealevel;temperature
72278;BMP280;61204;49.980;8.358;2024-01-10T00:01:50;101717.25;;;-3.94
72278;BMP280;61204;49.980;8.358;2024-01-10T00:04:16;101704.75;;;-3.97
72278;BMP280;61204;49.980;8.358;2024-01-10T00:06:46;101718.69;;;-4.02
72278;BMP280;61204;49.980;8.358;2024-01-10T00:09:12;101715.53;;;-4.10
72278;BMP280;61204;49.980;8.358;2024-01-10T00:11:38;101706.16;;;-4.15
72278;BMP280;61204;49.980;8.358;2024-01-10T00:14:03;101718.91;;;-4.19
72278;BMP280;61204;49.980;8.358;2024-01-10T00:16:30;101719.25;;;-4.17
72278;BMP280;61204;49.980;8.358;2024-01-10T00:18:55;101707.78;;;-4.17
72278;BMP280;61204;49.980;8.358;2024-01-10T00:21:21;101713.25;;;-4.21
72278;BMP280;61204;49.980;8.358;2024-01-10T00:23:46;101691.94;;;-4.34
72278;BMP280;61204;49.980;8.358;2024-01-10T00:26:12;101700.56;;;-4.30
72278;BMP280;61204;49.980;8.358;2024-01-10T00:28:38;101701.16;;;-4.35
72278;BMP280;61204;49.980;8.358;2024-01-10T00:31:03;101702.63;;;-4.34
72278;BMP280;61204;49.980;8.358;2024-01-10T00:33:29;101700.09;;;-4.37
72278;BMP280;61204;49.980;8.358;2024-01-10T00:35:55;101703.97;;;-4.38
72278;BMP280;61204;49.980;8.358;2024-01-10T00:38:22;101703.44;;;-4.46
72278;BMP280;61204;49.980;8.358;2024-01-10T00:40:48;101701.34;;;-4.51
72278;BMP280;61204;49.980;8.358;2024-01-10T00:43:13;101705.31;;;-4.56
72278;BMP280;61204;49.980;8.358;2024-01-10T00:45:39;101704.03;;;-4.51
72278;BMP280;61204;49.980;8.358;2024-01-10T00:48:05;101702.09;;;-4.50
72278;BMP280;61204;49.980;8.358;2024-01-10T00:50:31;101706.72;;;-4.51
72278;BMP280;61204;49.980;8.358;2024-01-10T00:52:56;101701.41;;;-4.64
72278;BMP280;61204;49.980;8.358;2024-01-10T00:55:24;101701.38;;;-4.73
72278;BMP280;61204;49.980;8.358;2024-01-10T00:57:49;101705.31;;;-4.78
72278;BMP280;61204;49.980;8.358;2024-01-10T01:00:15;101712.59;;;-4.78
72278;BMP280;61204;49.980;8.358;2024-01-10T01:02:41;101706.09;;;-4.77
72278;BMP280;61204;49.980;8.358;2024-01-10T01:05:07;101699.16;;;-4.87
72278;BMP280;61204;49.980;8.358;2024-01-10T01:07:33;101700.53;;;-4.83
72278;BMP280;61204;49.980;8.358;2024-01-10T01:09:59;101695.69;;;-4.75
72278;BMP280;61204;49.980;8.358;2024-01-10T01:12:25;101694.31;;;-4.80
72278;BMP280;61204;49.980;8.358;2024-01-10T01:14:51;101690.44;;;-4.79
72278;BMP280;61204;49.980;8.358;2024-01-10T01:17:18;101691.41;;;-4.72
72278;BMP280;61204;49.980;8.358;2024-01-10T01:19:45;101699.72;;;-4.70
72278;BMP280;61204;49.980;8.358;2024-01-10T01:22:10;101699.94;;;-4.78
72278;BMP280;61204;49.980;8.358;2024-01-10T01:24:36;101693.34;;;-4.73
72278;BMP280;61204;49.980;8.358;2024-01-10T01:27:02;101698.72;;;-4.86
72278;BMP280;61204;49.980;8.358;2024-01-10T01:29:28;101698.16;;;-4.81
72278;BMP280;61204;49.980;8.358;2024-01-10T01:31:54;101694.75;;;-4.81
72278;BMP280;61204;49.980;8.358;2024-01-10T01:34:20;101703.41;;;-4.77
72278;BMP280;61204;49.980;8.358;2024-01-10T01:36:46;101702.63;;;-4.78
72278;BMP280;61204;49.980;8.358;2024-01-10T01:39:11;101701.09;;;-4.88
72278;BMP280;61204;49.980;8.358;2024-01-10T01:41:39;101702.72;;;-4.90
72278;BMP280;61204;49.980;8.358;2024-01-10T01:44:05;101708.63;;;-4.95
72278;BMP280;61204;49.980;8.358;2024-01-10T01:46:31;101712.03;;;-4.95
72278;BMP280;61204;49.980;8.358;2024-01-10T01:48:58;101709.09;;;-5.10
72278;BMP280;61204;49.980;8.358;2024-01-10T01:51:26;101705.56;;;-5.07
72278;BMP280;61204;49.980;8.358;2024-01-10T01:53:56;101706.63;;;-5.17
72278;BMP280;61204;49.980;8.358;2024-01-10T01:56:23;101704.56;;;-5.13
72278;BMP280;61204;49.980;8.358;2024-01-10T01:58:53;101699.59;;;-5.11
72278;BMP280;61204;49.980;8.358;2024-01-10T02:01:19;101701.41;;;-5.08
72278;BMP280;61204;49.980;8.358;2024-01-10T02:03:47;101697.13;;;-5.18
72278;BMP280;61204;49.980;8.358;2024-01-10T02:06:13;101695.63;;;-5.19
72278;BMP280;61204;49.980;8.358;2024-01-10T02:08:38;101700.91;;;-5.28
72278;BMP280;61204;49.980;8.358;2024-01-10T02:11:04;101692.88;;;-5.28
72278;BMP280;61204;49.980;8.358;2024-01-10T02:13:33;101697.03;;;-5.27
72278;BMP280;61204;49.980;8.358;2024-01-10T02:15:59;101698.00;;;-5.21
72278;BMP280;61204;49.980;8.358;2024-01-10T02:18:26;101692.97;;;-5.32
72278;BMP280;61204;49.980;8.358;2024-01-10T02:20:52;101692.00;;;-5.25
72278;BMP280;61204;49.980;8.358;2024-01-10T02:23:17;101689.34;;;-5.25
72278;BMP280;61204;49.980;8.358;2024-01-10T02:25:44;101680.03;;;-5.33
72278;BMP280;61204;49.980;8.358;2024-01-10T02:28:10;101689.09;;;-5.31
72278;BMP280;61204;49.980;8.358;2024-01-10T02:30:38;101689.88;;;-5.30
72278;BMP280;61204;49.980;8.358;2024-01-10T02:33:04;101683.81;;;-5.43
72278;BMP280;61204;49.980;8.358;2024-01-10T02:35:31;101688.31;;;-5.40
72278;BMP280;61204;49.980;8.358;2024-01-10T02:37:58;101685.50;;;-5.37
72278;BMP280;61204;49.980;8.358;2024-01-10T02:40:24;101688.31;;;-5.40
72278;BMP280;61204;49.980;8.358;2024-01-10T02:42:53;101682.75;;;-5.46
72278;BMP280;61204;49.980;8.358;2024-01-10T02:45:18;101684.44;;;-5.39
72278;BMP280;61204;49.980;8.358;2024-01-10T02:47:44;101680.41;;;-5.44
72278;BMP280;61204;49.980;8.358;2024-01-10T02:50:10;101679.75;;;-5.48
72278;BMP280;61204;49.980;8.358;2024-01-10T02:52:36;101680.84;;;-5.45
72278;BMP280;61204;49.980;8.358;2024-01-10T02:55:01;101687.97;;;-5.42
72278;BMP280;61204;49.980;8.358;2024-01-10T02:57:27;101682.09;;;-5.37
72278;BMP280;61204;49.980;8.358;2024-01-10T02:59:52;101679.09;;;-5.39
72278;BMP280;61204;49.980;8.358;2024-01-10T03:02:18;101677.94;;;-5.51
72278;BMP280;61204;49.980;8.358;2024-01-10T03:04:43;101680.16;;;-5.50
72278;BMP280;61204;49.980;8.358;2024-01-10T03:07:11;101670.25;;;-5.49
72278;BMP280;61204;49.980;8.358;2024-01-10T03:09:37;101664.41;;;-5.57
72278;BMP280;61204;49.980;8.358;2024-01-10T03:12:03;101658.28;;;-5.57
72278;BMP280;61204;49.980;8.358;2024-01-10T03:14:29;101654.22;;;-5.62
72278;BMP280;61204;49.980;8.358;2024-01-10T03:16:55;101660.31;;;-5.61
72278;BMP280;61204;49.980;8.358;2024-01-10T03:19:20;101656.78;;;-5.58
72278;BMP280;61204;49.980;8.358;2024-01-10T03:21:46;101655.59;;;-5.57
72278;BMP280;61204;49.980;8.358;2024-01-10T03:24:11;101646.19;;;-5.62
72278;BMP280;61204;49.980;8.358;2024-01-10T03:26:37;101652.09;;;-5.67
72278;BMP280;61204;49.980;8.358;2024-01-10T03:29:03;101653.28;;;-5.68
72278;BMP280;61204;49.980;8.358;2024-01-10T03:31:29;101653.41;;;-5.72
72278;BMP280;61204;49.980;8.358;2024-01-10T03:33:57;101657.13;;;-5.69
72278;BMP280;61204;49.980;8.358;2024-01-10T03:36:23;101665.69;;;-5.74
72278;BMP280;61204;49.980;8.358;2024-01-10T03:38:52;101654.56;;;-5.73
72278;BMP280;61204;49.980;8.358;2024-01-10T03:41:18;101656.88;;;-5.62
72278;BMP280;61204;49.980;8.358;2024-01-10T03:43:46;101657.00;;;-5.53
72278;BMP280;61204;49.980;8.358;2024-01-10T03:46:13;101660.53;;;-5.56
72278;BMP280;61204;49.980;8.358;2024-01-10T03:48:41;101656.25;;;-5.53
72278;BMP280;61204;49.980;8.358;2024-01-10T03:51:13;101652.41;;;-5.65
72278;BMP280;61204;49.980;8.358;2024-01-10T03:53:41;101657.66;;;-5.61
72278;BMP280;61204;49.980;8.358;2024-01-10T03:56:07;101656.44;;;-5.48
72278;BMP280;61204;49.980;8.358;2024-01-10T03:58:33;101654.13;;;-5.45
72278;BMP280;61204;49.980;8.358;2024-01-10T04:01:07;101657.19;;;-5.47
72278;BMP280;61204;49.980;8.358;2024-01-10T04:03:38;101649.91;;;-5.47
72278;BMP280;61204;49.980;8.358;2024-01-10T04:06:06;101647.69;;;-5.48
72278;BMP280;61204;49.980;8.358;2024-01-10T04:08:32;101638.13;;;-5.36
72278;BMP280;61204;49.980;8.358;2024-01-10T04:10:58;101643.16;;;-5.38
72278;BMP280;61204;49.980;8.358;2024-01-10T04:13:24;101639.66;;;-5.48
72278;BMP280;61204;49.980;8.358;2024-01-10T04:15:49;101643.44;;;-5.45
72278;BMP280;61204;49.980;8.358;2024-01-10T04:18:17;101641.25;;;-5.51
72278;BMP280;61204;49.980;8.358;2024-01-10T04:20:42;101645.00;;;-5.48
72278;BMP280;61204;49.980;8.358;2024-01-10T04:23:09;101639.97;;;-5.46
72278;BMP280;61204;49.980;8.358;2024-01-10T04:25:34;101638.16;;;-5.49
72278;BMP280;61204;49.980;8.358;2024-01-10T04:28:00;101650.75;;;-5.50
72278;BMP280;61204;49.980;8.358;2024-01-10T04:30:26;101642.13;;;-5.41
72278;BMP280;61204;49.980;8.358;2024-01-10T04:32:51;101644.16;;;-5.45
72278;BMP280;61204;49.980;8.358;2024-01-10T04:35:17;101645.75;;;-5.48
72278;BMP280;61204;49.980;8.358;2024-01-10T04:37:43;101645.66;;;-5.44
72278;BMP280;61204;49.980;8.358;2024-01-10T04:40:11;101638.81;;;-5.45
72278;BMP280;61204;49.980;8.358;2024-01-10T04:42:36;101651.63;;;-5.40
72278;BMP280;61204;49.980;8.358;2024-01-10T04:45:02;101652.50;;;-5.43
72278;BMP280;61204;49.980;8.358;2024-01-10T04:47:28;101659.47;;;-5.45
72278;BMP280;61204;49.980;8.358;2024-01-10T04:49:53;101658.03;;;-5.37
72278;BMP280;61204;49.980;8.358;2024-01-10T04:52:19;101653.09;;;-5.39
72278;BMP280;61204;49.980;8.358;2024-01-10T04:54:44;101658.34;;;-5.35
72278;BMP280;61204;49.980;8.358;2024-01-10T04:57:10;101662.13;;;-5.45
72278;BMP280;61204;49.980;8.358;2024-01-10T04:59:36;101656.78;;;-5.45
72278;BMP280;61204;49.980;8.358;2024-01-10T05:02:01;101661.16;;;-5.52
72278;BMP280;61204;49.980;8.358;2024-01-10T05:04:30;101658.81;;;-5.62
72278;BMP280;61204;49.980;8.358;2024-01-10T05:06:55;101658.81;;;-5.62
72278;BMP280;61204;49.980;8.358;2024-01-10T05:09:21;101650.41;;;-5.61
72278;BMP280;61204;49.980;8.358;2024-01-10T05:11:46;101652.81;;;-5.54
72278;BMP280;61204;49.980;8.358;2024-01-10T05:14:13;101659.78;;;-5.56
72278;BMP280;61204;49.980;8.358;2024-01-10T05:16:39;101652.53;;;-5.56
72278;BMP280;61204;49.980;8.358;2024-01-10T05:19:07;101647.91;;;-5.55
72278;BMP280;61204;49.980;8.358;2024-01-10T05:21:32;101655.59;;;-5.44
72278;BMP280;61204;49.980;8.358;2024-01-10T05:23:59;101650.75;;;-5.50
72278;BMP280;61204;49.980;8.358;2024-01-10T05:26:24;101651.09;;;-5.48
72278;BMP280;61204;49.980;8.358;2024-01-10T05:28:52;101648.38;;;-5.35
72278;BMP280;61204;49.980;8.358;2024-01-10T05:31:18;101647.88;;;-5.42
72278;BMP280;61204;49.980;8.358;2024-01-10T05:33:43;101645.84;;;-5.38
72278;BMP280;61204;49.980;8.358;2024-01-10T05:36:09;101643.31;;;-5.20
72278;BMP280;61204;49.980;8.358;2024-01-10T05:38:38;101649.16;;;-5.34
72278;BMP280;61204;49.980;8.358;2024-01-10T05:41:05;101634.59;;;-5.33
72278;BMP280;61204;49.980;8.358;2024-01-10T05:43:30;101637.84;;;-5.16
72278;BMP280;61204;49.980;8.358;2024-01-10T05:45:56;101643.19;;;-5.16
72278;BMP280;61204;49.980;8.358;2024-01-10T05:48:23;101652.72;;;-5.15
72278;BMP280;61204;49.980;8.358;2024-01-10T05:50:49;101650.25;;;-5.10
72278;BMP280;61204;49.980;8.358;2024-01-10T05:53:17;101646.94;;;-5.14
72278;BMP280;61204;49.980;8.358;2024-01-10T05:55:43;101641.47;;;-5.10
72278;BMP280;61204;49.980;8.358;2024-01-10T05:58:12;101642.44;;;-5.17
72278;BMP280;61204;49.980;8.358;2024-01-10T06:00:38;101642.16;;;-5.19
72278;BMP280;61204;49.980;8.358;2024-01-10T06:03:04;101642.16;;;-5.19
72278;BMP280;61204;49.980;8.358;2024-01-10T06:05:30;101634.69;;;-5.24
72278;BMP280;61204;49.980;8.358;2024-01-10T06:07:58;101641.25;;;-5.16
72278;BMP280;61204;49.980;8.358;2024-01-10T06:10:24;101648.25;;;-5.31
72278;BMP280;61204;49.980;8.358;2024-01-10T06:12:50;101638.75;;;-5.32
72278;BMP280;61204;49.980;8.358;2024-01-10T06:15:15;101643.16;;;-5.38
72278;BMP280;61204;49.980;8.358;2024-01-10T06:17:41;101647.53;;;-5.32
72278;BMP280;61204;49.980;8.358;2024-01-10T06:20:07;101642.53;;;-5.42
72278;BMP280;61204;49.980;8.358;2024-01-10T06:22:34;101640.41;;;-5.48
72278;BMP280;61204;49.980;8.358;2024-01-10T06:24:59;101647.59;;;-5.44
72278;BMP280;61204;49.980;8.358;2024-01-10T06:27:25;101654.13;;;-5.45
72278;BMP280;61204;49.980;8.358;2024-01-10T06:29:50;101651.38;;;-5.33
72278;BMP280;61204;49.980;8.358;2024-01-10T06:32:16;101651.19;;;-5.38
72278;BMP280;61204;49.980;8.358;2024-01-10T06:34:42;101648.22;;;-5.40
72278;BMP280;61204;49.980;8.358;2024-01-10T06:37:08;101650.53;;;-5.30
72278;BMP280;61204;49.980;8.358;2024-01-10T06:39:34;101648.50;;;-5.38
72278;BMP280;61204;49.980;8.358;2024-01-10T06:41:59;101650.56;;;-5.42
72278;BMP280;61204;49.980;8.358;2024-01-10T06:44:25;101655.38;;;-5.37
72278;BMP280;61204;49.980;8.358;2024-01-10T06:46:53;101651.19;;;-5.38
72278;BMP280;61204;49.980;8.358;2024-01-10T06:49:18;101655.81;;;-5.52
72278;BMP280;61204;49.980;8.358;2024-01-10T06:51:44;101654.28;;;-5.40
72278;BMP280;61204;49.980;8.358;2024-01-10T06:54:09;101658.28;;;-5.44
72278;BMP280;61204;49.980;8.358;2024-01-10T06:56:35;101653.84;;;-5.38
72278;BMP280;61204;49.980;8.358;2024-01-10T06:59:01;101660.38;;;-5.39
72278;BMP280;61204;49.980;8.358;2024-01-10T07:01:27;101655.06;;;-5.17
72278;BMP280;61204;49.980;8.358;2024-01-10T07:03:54;101658.63;;;-5.20
72278;BMP280;61204;49.980;8.358;2024-01-10T07:06:23;101653.88;;;-5.16
72278;BMP280;61204;49.980;8.358;2024-01-10T07:08:49;101659.88;;;-5.12
72278;BMP280;61204;49.980;8.358;2024-01-10T07:11:18;101659.97;;;-5.16
72278;BMP280;61204;49.980;8.358;2024-01-10T07:13:45;101658.72;;;-5.11
72278;BMP280;61204;49.980;8.358;2024-01-10T07:16:11;101663.63;;;-5.10
72278;BMP280;61204;49.980;8.358;2024-01-10T07:18:39;101663.06;;;-5.05
72278;BMP280;61204;49.980;8.358;2024-01-10T07:21:06;101682.50;;;-5.04
72278;BMP280;61204;49.980;8.358;2024-01-10T07:23:31;101665.72;;;-5.05
72278;BMP280;61204;49.980;8.358;2024-01-10T07:25:57;101668.91;;;-4.97
72278;BMP280;61204;49.980;8.358;2024-01-10T07:28:23;101675.44;;;-4.98
72278;BMP280;61204;49.980;8.358;2024-01-10T07:30:49;101677.50;;;-5.02
72278;BMP280;61204;49.980;8.358;2024-01-10T07:33:14;101680.63;;;-5.04
72278;BMP280;61204;49.980;8.358;2024-01-10T07:35:40;101685.84;;;-5.00
72278;BMP280;61204;49.980;8.358;2024-01-10T07:38:06;101693.06;;;-4.88
72278;BMP280;61204;49.980;8.358;2024-01-10T07:40:35;101688.75;;;-4.85
72278;BMP280;61204;49.980;8.358;2024-01-10T07:43:01;101694.31;;;-4.80
72278;BMP280;61204;49.980;8.358;2024-01-10T07:45:27;101701.38;;;-4.86
72278;BMP280;61204;49.980;8.358;2024-01-10T07:47:54;101695.63;;;-4.84
72278;BMP280;61204;49.980;8.358;2024-01-10T07:50:19;101693.09;;;-4.79
72278;BMP280;61204;49.980;8.358;2024-01-10T07:52:46;101693.09;;;-4.79
72278;BMP280;61204;49.980;8.358;2024-01-10T07:55:12;101689.16;;;-4.74
72278;BMP280;61204;49.980;8.358;2024-01-10T07:57:38;101696.63;;;-4.69
72278;BMP280;61204;49.980;8.358;2024-01-10T08:00:05;101703.09;;;-4.57
72278;BMP280;61204;49.980;8.358;2024-01-10T08:02:38;101709.88;;;-4.65
72278;BMP280;61204;49.980;8.358;2024-01-10T08:05:07;101715.28;;;-4.56
72278;BMP280;61204;49.980;8.358;2024-01-10T08:07:34;101719.91;;;-4.57
72278;BMP280;61204;49.980;8.358;2024-01-10T08:10:07;101718.91;;;-4.50
72278;BMP280;61204;49.980;8.358;2024-01-10T08:12:38;101717.84;;;-4.53
72278;BMP280;61204;49.980;8.358;2024-01-10T08:15:06;101717.44;;;-4.42
72278;BMP280;61204;49.980;8.358;2024-01-10T08:17:33;101731.94;;;-4.39
72278;BMP280;61204;49.980;8.358;2024-01-10T08:19:59;101725.47;;;-4.42
72278;BMP280;61204;49.980;8.358;2024-01-10T08:22:26;101728.34;;;-4.36
72278;BMP280;61204;49.980;8.358;2024-01-10T08:24:51;101730.91;;;-4.33
72278;BMP280;61204;49.980;8.358;2024-01-10T08:27:21;101725.47;;;-4.20
72278;BMP280;61204;49.980;8.358;2024-01-10T08:29:47;101738.53;;;-4.22
72278;BMP280;61204;49.980;8.358;2024-01-10T08:32:12;101734.13;;;-4.16
72278;BMP280;61204;49.980;8.358;2024-01-10T08:34:38;101738.00;;;-4.17
72278;BMP280;61204;49.980;8.358;2024-01-10T08:37:03;101721.59;;;-4.19
72278;BMP280;61204;49.980;8.358;2024-01-10T08:39:31;101743.66;;;-4.15
72278;BMP280;61204;49.980;8.358;2024-01-10T08:41:57;101735.03;;;-4.10
72278;BMP280;61204;49.980;8.358;2024-01-10T08:44:23;101725.97;;;-4.03
72278;BMP280;61204;49.980;8.358;2024-01-10T08:46:49;101736.13;;;-3.98
72278;BMP280;61204;49.980;8.358;2024-01-10T08:49:18;101736.41;;;-4.05
72278;BMP280;61204;49.980;8.358;2024-01-10T08:51:44;101745.56;;;-3.93
72278;BMP280;61204;49.980;8.358;2024-01-10T08:54:12;101743.63;;;-3.93
72278;BMP280;61204;49.980;8.358;2024-01-10T08:56:43;101747.06;;;-3.83
72278;BMP280;61204;49.980;8.358;2024-01-10T08:59:10;101747.59;;;-3.57
72278;BMP280;61204;49.980;8.358;2024-01-10T09:01:38;101743.44;;;-3.49
72278;BMP280;61204;49.980;8.358;2024-01-10T09:04:07;101754.63;;;-3.50
72278;BMP280;61204;49.980;8.358;2024-01-10T09:06:33;101756.97;;;-3.62
72278;BMP280;61204;49.980;8.358;2024-01-10T09:08:59;101763.00;;;-3.39
72278;BMP280;61204;49.980;8.358;2024-01-10T09:11:28;101758.69;;;-3.27
72278;BMP280;61204;49.980;8.358;2024-01-10T09:13:54;101764.78;;;-3.27
72278;BMP280;61204;49.980;8.358;2024-01-10T09:16:19;101769.88;;;-3.29
72278;BMP280;61204;49.980;8.358;2024-01-10T09:18:45;101762.25;;;-3.40
72278;BMP280;61204;49.980;8.358;2024-01-10T09:21:11;101759.09;;;-3.47
72278;BMP280;61204;49.980;8.358;2024-01-10T09:23:37;101762.94;;;-3.57
72278;BMP280;61204;49.980;8.358;2024-01-10T09:26:03;101767.41;;;-3.54
72278;BMP280;61204;49.980;8.358;2024-01-10T09:28:29;101771.81;;;-3.29
72278;BMP280;61204;49.980;8.358;2024-01-10T09:30:54;101757.63;;;-3.39
72278;BMP280;61204;49.980;8.358;2024-01-10T09:33:20;101761.78;;;-3.38
72278;BMP280;61204;49.980;8.358;2024-01-10T09:35:47;101765.13;;;-2.97
72278;BMP280;61204;49.980;8.358;2024-01-10T09:38:13;101755.59;;;-2.89
72278;BMP280;61204;49.980;8.358;2024-01-10T09:40:39;101759.31;;;-2.68
72278;BMP280;61204;49.980;8.358;2024-01-10T09:43:05;101759.31;;;-2.86
72278;BMP280;61204;49.980;8.358;2024-01-10T09:45:35;101766.91;;;-3.22
72278;BMP280;61204;49.980;8.358;2024-01-10T09:48:02;101772.97;;;-3.30
72278;BMP280;61204;49.980;8.358;2024-01-10T09:50:31;101768.22;;;-3.36
72278;BMP280;61204;49.980;8.358;2024-01-10T09:53:05;101770.00;;;-3.32
72278;BMP280;61204;49.980;8.358;2024-01-10T09:55:34;101761.56;;;-3.22
72278;BMP280;61204;49.980;8.358;2024-01-10T09:58:06;101766.59;;;-3.15
72278;BMP280;61204;49.980;8.358;2024-01-10T10:00:34;101766.47;;;-2.93
72278;BMP280;61204;49.980;8.358;2024-01-10T10:03:02;101754.81;;;-2.71
72278;BMP280;61204;49.980;8.358;2024-01-10T10:05:29;101755.13;;;-2.97
72278;BMP280;61204;49.980;8.358;2024-01-10T10:07:56;101750.81;;;-3.22
72278;BMP280;61204;49.980;8.358;2024-01-10T10:10:23;101749.63;;;-3.21
72278;BMP280;61204;49.980;8.358;2024-01-10T10:12:52;101745.47;;;-3.22
72278;BMP280;61204;49.980;8.358;2024-01-10T10:15:22;101743.66;;;-3.16
72278;BMP280;61204;49.980;8.358;2024-01-10T10:17:52;101740.22;;;-3.16
72278;BMP280;61204;49.980;8.358;2024-01-10T10:20:29;101737.41;;;-3.13
72278;BMP280;61204;49.980;8.358;2024-01-10T10:23:08;101739.63;;;-3.11
72278;BMP280;61204;49.980;8.358;2024-01-10T10:25:44;101743.06;;;-3.01
72278;BMP280;61204;49.980;8.358;2024-01-10T10:28:12;101737.69;;;-2.92
72278;BMP280;61204;49.980;8.358;2024-01-10T10:30:38;101743.94;;;-2.77
72278;BMP280;61204;49.980;8.358;2024-01-10T10:33:05;101741.28;;;-2.86
72278;BMP280;61204;49.980;8.358;2024-01-10T10:35:33;101747.22;;;-2.73
72278;BMP280;61204;49.980;8.358;2024-01-10T10:37:59;101747.66;;;-2.74
72278;BMP280;61204;49.980;8.358;2024-01-10T10:40:27;101751.06;;;-2.46
72278;BMP280;61204;49.980;8.358;2024-01-10T10:42:55;101746.28;;;-2.42
72278;BMP280;61204;49.980;8.358;2024-01-10T10:45:22;101747.63;;;-2.47
72278;BMP280;61204;49.980;8.358;2024-01-10T10:47:56;101746.53;;;-2.22
72278;BMP280;61204;49.980;8.358;2024-01-10T10:50:32;101753.69;;;-2.19
72278;BMP280;61204;49.980;8.358;2024-01-10T10:53:02;101740.28;;;-2.37
72278;BMP280;61204;49.980;8.358;2024-01-10T10:55:29;101745.81;;;-2.41
72278;BMP280;61204;49.980;8.358;2024-01-10T10:58:01;101747.47;;;-2.34
72278;BMP280;61204;49.980;8.358;2024-01-10T11:00:30;101749.72;;;-2.42
72278;BMP280;61204;49.980;8.358;2024-01-10T11:02:59;101748.19;;;-2.33
72278;BMP280;61204;49.980;8.358;2024-01-10T11:05:27;101743.53;;;-2.24
72278;BMP280;61204;49.980;8.358;2024-01-10T11:07:54;101749.09;;;-2.36
72278;BMP280;61204;49.980;8.358;2024-01-10T11:10:27;101751.34;;;-2.35
72278;BMP280;61204;49.980;8.358;2024-01-10T11:13:23;101752.38;;;-2.32
72278;BMP280;61204;49.980;8.358;2024-01-10T11:19:14;101744.63;;;-1.97
72278;BMP280;61204;49.980;8.358;2024-01-10T11:25:11;101733.94;;;-1.73
72278;BMP280;61204;49.980;8.358;2024-01-10T11:27:36;101739.81;;;-1.60
72278;BMP280;61204;49.980;8.358;2024-01-10T11:30:02;101733.91;;;-1.49
72278;BMP280;61204;49.980;8.358;2024-01-10T11:32:32;101732.25;;;-1.47
72278;BMP280;61204;49.980;8.358;2024-01-10T11:35:03;101732.47;;;-1.35
72278;BMP280;61204;49.980;8.358;2024-01-10T11:37:43;101739.97;;;-1.15
72278;BMP280;61204;49.980;8.358;2024-01-10T11:40:14;101730.69;;;-1.14
72278;BMP280;61204;49.980;8.358;2024-01-10T11:42:45;101728.81;;;-1.23
72278;BMP280;61204;49.980;8.358;2024-01-10T11:47:56;101724.81;;;-1.28
72278;BMP280;61204;49.980;8.358;2024-01-10T11:50:23;101722.53;;;-1.20
72278;BMP280;61204;49.980;8.358;2024-01-10T11:52:52;101719.44;;;-1.28
72278;BMP280;61204;49.980;8.358;2024-01-10T11:55:47;101712.78;;;-1.41
72278;BMP280;61204;49.980;8.358;2024-01-10T11:58:18;101705.41;;;-1.32
72278;BMP280;61204;49.980;8.358;2024-01-10T12:00:46;101704.50;;;-1.14
72278;BMP280;61204;49.980;8.358;2024-01-10T12:03:14;101695.41;;;-1.31
72278;BMP280;61204;49.980;8.358;2024-01-10T12:05:40;101707.47;;;-1.12
72278;BMP280;61204;49.980;8.358;2024-01-10T12:08:07;101696.00;;;-0.83
72278;BMP280;61204;49.980;8.358;2024-01-10T12:10:33;101702.38;;;-0.80
72278;BMP280;61204;49.980;8.358;2024-01-10T12:13:03;101705.53;;;-0.97
72278;BMP280;61204;49.980;8.358;2024-01-10T12:15:29;101714.72;;;-1.18
72278;BMP280;61204;49.980;8.358;2024-01-10T12:17:55;101707.38;;;-1.03
72278;BMP280;61204;49.980;8.358;2024-01-10T12:20:25;101706.66;;;-0.88
72278;BMP280;61204;49.980;8.358;2024-01-10T12:22:51;101702.31;;;-0.71
72278;BMP280;61204;49.980;8.358;2024-01-10T12:25:17;101698.09;;;-0.57
72278;BMP280;61204;49.980;8.358;2024-01-10T12:27:44;101696.38;;;0.10
72278;BMP280;61204;49.980;8.358;2024-01-10T12:30:09;101703.94;;;0.53
72278;BMP280;61204;49.980;8.358;2024-01-10T12:32:36;101693.22;;;0.12
72278;BMP280;61204;49.980;8.358;2024-01-10T12:35:03;101698.50;;;-0.14
72278;BMP280;61204;49.980;8.358;2024-01-10T12:37:31;101700.47;;;0.26
72278;BMP280;61204;49.980;8.358;2024-01-10T12:39:57;101690.28;;;0.36
72278;BMP280;61204;49.980;8.358;2024-01-10T12:42:23;101694.91;;;0.56
72278;BMP280;61204;49.980;8.358;2024-01-10T12:44:49;101690.88;;;-0.16
72278;BMP280;61204;49.980;8.358;2024-01-10T12:47:22;101695.19;;;-0.39
72278;BMP280;61204;49.980;8.358;2024-01-10T12:49:50;101687.09;;;-0.39
72278;BMP280;61204;49.980;8.358;2024-01-10T12:52:16;101697.50;;;0.04
72278;BMP280;61204;49.980;8.358;2024-01-10T12:54:42;101697.06;;;-0.30
72278;BMP280;61204;49.980;8.358;2024-01-10T12:57:08;101694.84;;;-0.46
72278;BMP280;61204;49.980;8.358;2024-01-10T12:59:35;101697.72;;;0.00
72278;BMP280;61204;49.980;8.358;2024-01-10T13:02:00;101691.75;;;-0.04
72278;BMP280;61204;49.980;8.358;2024-01-10T13:04:26;101697.25;;;-0.34
72278;BMP280;61204;49.980;8.358;2024-01-10T13:06:52;101692.19;;;-0.11
72278;BMP280;61204;49.980;8.358;2024-01-10T13:09:17;101688.03;;;-0.27
72278;BMP280;61204;49.980;8.358;2024-01-10T13:11:43;101677.72;;;-0.29
72278;BMP280;61204;49.980;8.358;2024-01-10T13:14:10;101685.78;;;-0.14
72278;BMP280;61204;49.980;8.358;2024-01-10T13:16:37;101687.84;;;-0.23
72278;BMP280;61204;49.980;8.358;2024-01-10T13:19:03;101686.44;;;-0.19
72278;BMP280;61204;49.980;8.358;2024-01-10T13:21:28;101689.31;;;0.13
72278;BMP280;61204;49.980;8.358;2024-01-10T13:23:54;101687.06;;;0.11
72278;BMP280;61204;49.980;8.358;2024-01-10T13:26:20;101689.88;;;-0.18
72278;BMP280;61204;49.980;8.358;2024-01-10T13:28:51;101684.28;;;-0.15
72278;BMP280;61204;49.980;8.358;2024-01-10T13:31:16;101681.13;;;-0.13
72278;BMP280;61204;49.980;8.358;2024-01-10T13:33:42;101682.38;;;-0.29
72278;BMP280;61204;49.980;8.358;2024-01-10T13:36:08;101689.25;;;-0.43
72278;BMP280;61204;49.980;8.358;2024-01-10T13:38:33;101694.84;;;-0.46
72278;BMP280;61204;49.980;8.358;2024-01-10T13:41:00;101691.41;;;-0.47
72278;BMP280;61204;49.980;8.358;2024-01-10T13:43:26;101686.28;;;-0.45
72278;BMP280;61204;49.980;8.358;2024-01-10T13:45:53;101695.00;;;-0.35
72278;BMP280;61204;49.980;8.358;2024-01-10T13:48:19;101689.06;;;-0.04
72278;BMP280;61204;49.980;8.358;2024-01-10T13:50:44;101690.72;;;0.29
72278;BMP280;61204;49.980;8.358;2024-01-10T13:53:11;101682.66;;;0.34
72278;BMP280;61204;49.980;8.358;2024-01-10T13:55:38;101690.06;;;0.39
72278;BMP280;61204;49.980;8.358;2024-01-10T13:58:04;101692.19;;;-0.11
72278;BMP280;61204;49.980;8.358;2024-01-10T14:00:29;101684.09;;;-0.11
72278;BMP280;61204;49.980;8.358;2024-01-10T14:02:55;101683.56;;;0.05
72278;BMP280;61204;49.980;8.358;2024-01-10T14:05:27;101682.44;;;0.12